sensor_id;sensor_type;location;lat;lon;timestamp;P1;durP1;ratioP1;P2;durP2;ratioP2
7527;SDS011;3805;49.006;8.514;2023-06-22T00:02:00;7.30;;;6.70;;
7527;SDS011;3805;49.006;8.514;2023-06-22T00:04:49;6.67;;;5.97;;
7527;SDS011;3805;49.006;8.514;2023-06-22T00:07:39;6.83;;;6.23;;
7527;SDS011;3805;49.006;8.514;2023-06-22T00:10:27;7.87;;;7.17;;
7527;SDS011;3805;49.006;8.514;2023-06-22T00:13:16;6.37;;;5.87;;
7527;SDS011;3805;49.006;8.514;2023-06-22T00:16:05;6.40;;;5.90;;
7527;SDS011;3805;49.006;8.514;2023-06-22T00:18:54;7.10;;;6.00;;
7527;SDS011;3805;49.006;8.514;2023-06-22T00:21:42;6.87;;;6.10;;
7527;SDS011;3805;49.006;8.514;2023-06-22T00:24:35;6.40;;;5.90;;
7527;SDS011;3805;49.006;8.514;2023-06-22T00:27:23;9.97;;;6.77;;
7527;SDS011;3805;49.006;8.514;2023-06-22T00:30:12;7.50;;;6.60;;
7527;SDS011;3805;49.006;8.514;2023-06-22T00:33:01;6.57;;;5.97;;
7527;SDS011;3805;49.006;8.514;2023-06-22T00:35:50;6.20;;;5.60;;
7527;SDS011;3805;49.006;8.514;2023-06-22T00:38:40;7.00;;;6.37;;
7527;SDS011;3805;49.006;8.514;2023-06-22T00:41:31;7.90;;;6.83;;
7527;SDS011;3805;49.006;8.514;2023-06-22T00:44:19;9.80;;;7.30;;
7527;SDS011;3805;49.006;8.514;2023-06-22T00:47:08;11.53;;;8.33;;
7527;SDS011;3805;49.006;8.514;2023-06-22T00:49:56;10.63;;;8.10;;
7527;SDS011;3805;49.006;8.514;2023-06-22T00:52:45;8.43;;;7.53;;
7527;SDS011;3805;49.006;8.514;2023-06-22T00:55:33;8.77;;;7.40;;
7527;SDS011;3805;49.006;8.514;2023-06-22T00:58:25;7.30;;;6.63;;
7527;SDS011;3805;49.006;8.514;2023-06-22T01:01:14;9.70;;;8.73;;
7527;SDS011;3805;49.006;8.514;2023-06-22T01:04:03;7.93;;;7.17;;
7527;SDS011;3805;49.006;8.514;2023-06-22T01:06:54;8.10;;;7.27;;
7527;SDS011;3805;49.006;8.514;2023-06-22T01:09:51;8.03;;;7.20;;
7527;SDS011;3805;49.006;8.514;2023-06-22T01:12:45;8.07;;;7.27;;
7527;SDS011;3805;49.006;8.514;2023-06-22T01:15:39;8.63;;;7.63;;
7527;SDS011;3805;49.006;8.514;2023-06-22T01:18:33;9.37;;;7.60;;
7527;SDS011;3805;49.006;8.514;2023-06-22T01:21:26;8.83;;;8.00;;
7527;SDS011;3805;49.006;8.514;2023-06-22T01:24:18;8.90;;;8.07;;
7527;SDS011;3805;49.006;8.514;2023-06-22T01:27:13;9.50;;;8.60;;
7527;SDS011;3805;49.006;8.514;2023-06-22T01:30:10;8.20;;;7.40;;
7527;SDS011;3805;49.006;8.514;2023-06-22T01:32:59;8.80;;;7.20;;
7527;SDS011;3805;49.006;8.514;2023-06-22T01:35:49;11.83;;;8.70;;
7527;SDS011;3805;49.006;8.514;2023-06-22T01:38:40;8.80;;;7.90;;
7527;SDS011;3805;49.006;8.514;2023-06-22T01:41:34;9.60;;;8.33;;
7527;SDS011;3805;49.006;8.514;2023-06-22T01:44:24;8.80;;;7.73;;
7527;SDS011;3805;49.006;8.514;2023-06-22T01:47:15;8.43;;;7.50;;
7527;SDS011;3805;49.006;8.514;2023-06-22T01:50:04;16.00;;;9.00;;
7527;SDS011;3805;49.006;8.514;2023-06-22T01:52:53;12.40;;;8.00;;
7527;SDS011;3805;49.006;8.514;2023-06-22T01:55:42;9.00;;;8.07;;
7527;SDS011;3805;49.006;8.514;2023-06-22T01:58:31;10.40;;;8.13;;
7527;SDS011;3805;49.006;8.514;2023-06-22T02:01:22;9.33;;;8.33;;
7527;SDS011;3805;49.006;8.514;2023-06-22T02:04:16;19.83;;;9.83;;
7527;SDS011;3805;49.006;8.514;2023-06-22T02:07:09;9.17;;;8.27;;
7527;SDS011;3805;49.006;8.514;2023-06-22T02:10:00;9.20;;;8.37;;
7527;SDS011;3805;49.006;8.514;2023-06-22T02:12:50;10.80;;;9.00;;
7527;SDS011;3805;49.006;8.514;2023-06-22T02:15:39;10.07;;;8.83;;
7527;SDS011;3805;49.006;8.514;2023-06-22T02:18:28;9.20;;;8.30;;
7527;SDS011;3805;49.006;8.514;2023-06-22T02:21:18;11.17;;;9.17;;
7527;SDS011;3805;49.006;8.514;2023-06-22T02:24:06;12.63;;;9.80;;
7527;SDS011;3805;49.006;8.514;2023-06-22T02:26:55;11.10;;;10.00;;
7527;SDS011;3805;49.006;8.514;2023-06-22T02:29:44;10.70;;;9.60;;
7527;SDS011;3805;49.006;8.514;2023-06-22T02:32:32;10.00;;;9.00;;
7527;SDS011;3805;49.006;8.514;2023-06-22T02:35:22;11.40;;;9.97;;
7527;SDS011;3805;49.006;8.514;2023-06-22T02:38:12;14.33;;;10.10;;
7527;SDS011;3805;49.006;8.514;2023-06-22T02:41:01;10.50;;;9.50;;
7527;SDS011;3805;49.006;8.514;2023-06-22T02:43:50;9.93;;;8.77;;
7527;SDS011;3805;49.006;8.514;2023-06-22T02:46:38;10.13;;;9.13;;
7527;SDS011;3805;49.006;8.514;2023-06-22T02:49:27;10.60;;;9.43;;
7527;SDS011;3805;49.006;8.514;2023-06-22T02:52:16;11.30;;;10.03;;
7527;SDS011;3805;49.006;8.514;2023-06-22T02:55:06;11.40;;;9.60;;
7527;SDS011;3805;49.006;8.514;2023-06-22T02:57:55;11.30;;;9.67;;
7527;SDS011;3805;49.006;8.514;2023-06-22T03:00:44;9.50;;;8.53;;
7527;SDS011;3805;49.006;8.514;2023-06-22T03:03:33;10.37;;;9.37;;
7527;SDS011;3805;49.006;8.514;2023-06-22T03:06:22;11.30;;;8.40;;
7527;SDS011;3805;49.006;8.514;2023-06-22T03:09:15;11.03;;;9.93;;
7527;SDS011;3805;49.006;8.514;2023-06-22T03:12:06;12.03;;;9.97;;
7527;SDS011;3805;49.006;8.514;2023-06-22T03:14:55;11.30;;;10.13;;
7527;SDS011;3805;49.006;8.514;2023-06-22T03:17:44;11.73;;;10.53;;
7527;SDS011;3805;49.006;8.514;2023-06-22T03:20:32;11.47;;;10.27;;
7527;SDS011;3805;49.006;8.514;2023-06-22T03:23:21;11.40;;;9.50;;
7527;SDS011;3805;49.006;8.514;2023-06-22T03:26:10;10.60;;;9.33;;
7527;SDS011;3805;49.006;8.514;2023-06-22T03:29:00;12.60;;;9.27;;
7527;SDS011;3805;49.006;8.514;2023-06-22T03:31:49;10.73;;;9.73;;
7527;SDS011;3805;49.006;8.514;2023-06-22T03:34:37;11.70;;;10.17;;
7527;SDS011;3805;49.006;8.514;2023-06-22T03:37:26;10.47;;;9.47;;
7527;SDS011;3805;49.006;8.514;2023-06-22T03:40:14;12.03;;;9.80;;
7527;SDS011;3805;49.006;8.514;2023-06-22T03:43:03;12.47;;;11.00;;
7527;SDS011;3805;49.006;8.514;2023-06-22T03:45:53;10.33;;;9.33;;
7527;SDS011;3805;49.006;8.514;2023-06-22T03:48:42;9.33;;;8.20;;
7527;SDS011;3805;49.006;8.514;2023-06-22T03:51:30;10.00;;;8.60;;
7527;SDS011;3805;49.006;8.514;2023-06-22T03:54:19;12.53;;;9.47;;
7527;SDS011;3805;49.006;8.514;2023-06-22T03:57:07;10.67;;;9.47;;
7527;SDS011;3805;49.006;8.514;2023-06-22T03:59:57;11.13;;;10.03;;
7527;SDS011;3805;49.006;8.514;2023-06-22T04:02:47;11.73;;;9.73;;
7527;SDS011;3805;49.006;8.514;2023-06-22T04:05:36;10.83;;;9.77;;
7527;SDS011;3805;49.006;8.514;2023-06-22T04:08:24;12.17;;;9.93;;
7527;SDS011;3805;49.006;8.514;2023-06-22T04:11:13;11.57;;;9.73;;
7527;SDS011;3805;49.006;8.514;2023-06-22T04:14:01;13.93;;;10.60;;
7527;SDS011;3805;49.006;8.514;2023-06-22T04:16:51;11.20;;;9.40;;
7527;SDS011;3805;49.006;8.514;2023-06-22T04:19:41;11.27;;;10.27;;
7527;SDS011;3805;49.006;8.514;2023-06-22T04:22:29;10.87;;;9.00;;
7527;SDS011;3805;49.006;8.514;2023-06-22T04:25:18;11.93;;;10.63;;
7527;SDS011;3805;49.006;8.514;2023-06-22T04:28:07;10.60;;;9.57;;
7527;SDS011;3805;49.006;8.514;2023-06-22T04:30:59;13.07;;;9.53;;
7527;SDS011;3805;49.006;8.514;2023-06-22T04:33:49;10.67;;;8.97;;
7527;SDS011;3805;49.006;8.514;2023-06-22T04:36:40;10.07;;;8.83;;
7527;SDS011;3805;49.006;8.514;2023-06-22T04:39:29;10.40;;;9.33;;
7527;SDS011;3805;49.006;8.514;2023-06-22T04:42:18;15.93;;;10.60;;
7527;SDS011;3805;49.006;8.514;2023-06-22T04:45:07;10.17;;;9.37;;
7527;SDS011;3805;49.006;8.514;2023-06-22T04:47:57;9.27;;;8.37;;
7527;SDS011;3805;49.006;8.514;2023-06-22T04:50:46;10.27;;;9.27;;
7527;SDS011;3805;49.006;8.514;2023-06-22T04:53:36;12.63;;;9.83;;
7527;SDS011;3805;49.006;8.514;2023-06-22T04:56:24;14.00;;;9.63;;
7527;SDS011;3805;49.006;8.514;2023-06-22T04:59:15;10.60;;;9.50;;
7527;SDS011;3805;49.006;8.514;2023-06-22T05:02:05;10.30;;;9.07;;
7527;SDS011;3805;49.006;8.514;2023-06-22T05:04:54;12.50;;;8.70;;
7527;SDS011;3805;49.006;8.514;2023-06-22T05:07:44;10.00;;;9.07;;
7527;SDS011;3805;49.006;8.514;2023-06-22T05:10:36;11.00;;;8.80;;
7527;SDS011;3805;49.006;8.514;2023-06-22T05:13:41;10.47;;;9.37;;
7527;SDS011;3805;49.006;8.514;2023-06-22T05:16:29;14.87;;;9.43;;
7527;SDS011;3805;49.006;8.514;2023-06-22T05:19:18;11.07;;;9.77;;
7527;SDS011;3805;49.006;8.514;2023-06-22T05:22:06;10.33;;;8.70;;
7527;SDS011;3805;49.006;8.514;2023-06-22T05:24:55;12.30;;;9.63;;
7527;SDS011;3805;49.006;8.514;2023-06-22T05:27:45;9.90;;;8.90;;
7527;SDS011;3805;49.006;8.514;2023-06-22T05:30:33;10.40;;;9.03;;
7527;SDS011;3805;49.006;8.514;2023-06-22T05:33:22;11.07;;;9.33;;
7527;SDS011;3805;49.006;8.514;2023-06-22T05:36:11;10.67;;;9.40;;
7527;SDS011;3805;49.006;8.514;2023-06-22T05:39:10;9.90;;;8.87;;
7527;SDS011;3805;49.006;8.514;2023-06-22T05:42:00;12.50;;;9.40;;
7527;SDS011;3805;49.006;8.514;2023-06-22T05:44:50;12.20;;;10.90;;
7527;SDS011;3805;49.006;8.514;2023-06-22T05:47:40;15.57;;;10.83;;
7527;SDS011;3805;49.006;8.514;2023-06-22T05:50:28;12.17;;;10.87;;
7527;SDS011;3805;49.006;8.514;2023-06-22T05:53:17;14.83;;;10.60;;
7527;SDS011;3805;49.006;8.514;2023-06-22T05:56:06;11.17;;;10.03;;
7527;SDS011;3805;49.006;8.514;2023-06-22T05:58:54;11.50;;;10.30;;
7527;SDS011;3805;49.006;8.514;2023-06-22T06:01:44;14.43;;;10.40;;
7527;SDS011;3805;49.006;8.514;2023-06-22T06:04:37;9.90;;;9.00;;
7527;SDS011;3805;49.006;8.514;2023-06-22T06:07:26;17.73;;;11.17;;
7527;SDS011;3805;49.006;8.514;2023-06-22T06:10:14;9.97;;;8.97;;
7527;SDS011;3805;49.006;8.514;2023-06-22T06:13:03;11.13;;;9.60;;
7527;SDS011;3805;49.006;8.514;2023-06-22T06:15:52;13.10;;;10.80;;
7527;SDS011;3805;49.006;8.514;2023-06-22T06:18:43;12.57;;;9.40;;
7527;SDS011;3805;49.006;8.514;2023-06-22T06:21:32;10.70;;;8.97;;
7527;SDS011;3805;49.006;8.514;2023-06-22T06:24:20;11.53;;;10.03;;
7527;SDS011;3805;49.006;8.514;2023-06-22T06:27:09;16.23;;;9.20;;
7527;SDS011;3805;49.006;8.514;2023-06-22T06:29:57;11.17;;;9.47;;
7527;SDS011;3805;49.006;8.514;2023-06-22T06:32:46;10.47;;;9.37;;
7527;SDS011;3805;49.006;8.514;2023-06-22T06:35:36;10.63;;;9.53;;
7527;SDS011;3805;49.006;8.514;2023-06-22T06:38:25;13.37;;;9.50;;
7527;SDS011;3805;49.006;8.514;2023-06-22T06:41:14;11.13;;;10.00;;
7527;SDS011;3805;49.006;8.514;2023-06-22T06:44:03;11.30;;;9.53;;
7527;SDS011;3805;49.006;8.514;2023-06-22T06:46:52;13.57;;;9.30;;
7527;SDS011;3805;49.006;8.514;2023-06-22T06:49:41;9.23;;;8.33;;
7527;SDS011;3805;49.006;8.514;2023-06-22T06:52:31;8.87;;;8.07;;
7527;SDS011;3805;49.006;8.514;2023-06-22T06:55:21;10.00;;;8.07;;
7527;SDS011;3805;49.006;8.514;2023-06-22T06:58:12;9.70;;;8.80;;
7527;SDS011;3805;49.006;8.514;2023-06-22T07:01:01;9.03;;;8.10;;
7527;SDS011;3805;49.006;8.514;2023-06-22T07:03:50;9.97;;;9.00;;
7527;SDS011;3805;49.006;8.514;2023-06-22T07:06:38;13.97;;;8.90;;
7527;SDS011;3805;49.006;8.514;2023-06-22T07:09:28;9.70;;;8.53;;
7527;SDS011;3805;49.006;8.514;2023-06-22T07:12:17;9.47;;;8.50;;
7527;SDS011;3805;49.006;8.514;2023-06-22T07:15:06;10.07;;;8.90;;
7527;SDS011;3805;49.006;8.514;2023-06-22T07:17:55;12.23;;;8.00;;
7527;SDS011;3805;49.006;8.514;2023-06-22T07:20:44;8.90;;;8.10;;
7527;SDS011;3805;49.006;8.514;2023-06-22T07:23:33;9.93;;;8.43;;
7527;SDS011;3805;49.006;8.514;2023-06-22T07:26:22;9.93;;;8.93;;
7527;SDS011;3805;49.006;8.514;2023-06-22T07:29:11;9.27;;;8.33;;
7527;SDS011;3805;49.006;8.514;2023-06-22T07:32:00;11.90;;;7.60;;
7527;SDS011;3805;49.006;8.514;2023-06-22T07:34:51;8.33;;;7.57;;
7527;SDS011;3805;49.006;8.514;2023-06-22T07:37:40;9.73;;;8.83;;
7527;SDS011;3805;49.006;8.514;2023-06-22T07:40:29;9.07;;;7.60;;
7527;SDS011;3805;49.006;8.514;2023-06-22T07:43:19;10.03;;;7.20;;
7527;SDS011;3805;49.006;8.514;2023-06-22T07:46:09;8.40;;;7.67;;
7527;SDS011;3805;49.006;8.514;2023-06-22T07:48:57;8.93;;;8.03;;
7527;SDS011;3805;49.006;8.514;2023-06-22T07:51:46;7.07;;;6.37;;
7527;SDS011;3805;49.006;8.514;2023-06-22T07:54:35;7.83;;;7.03;;
7527;SDS011;3805;49.006;8.514;2023-06-22T07:57:23;8.00;;;7.27;;
7527;SDS011;3805;49.006;8.514;2023-06-22T08:00:21;7.70;;;7.10;;
7527;SDS011;3805;49.006;8.514;2023-06-22T08:03:10;7.50;;;6.80;;
7527;SDS011;3805;49.006;8.514;2023-06-22T08:05:59;8.40;;;6.57;;
7527;SDS011;3805;49.006;8.514;2023-06-22T08:08:47;8.67;;;6.40;;
7527;SDS011;3805;49.006;8.514;2023-06-22T08:11:36;12.17;;;7.10;;
7527;SDS011;3805;49.006;8.514;2023-06-22T08:14:25;7.77;;;6.97;;
7527;SDS011;3805;49.006;8.514;2023-06-22T08:17:15;8.33;;;6.30;;
7527;SDS011;3805;49.006;8.514;2023-06-22T08:20:04;6.93;;;5.93;;
7527;SDS011;3805;49.006;8.514;2023-06-22T08:22:56;7.47;;;6.77;;
7527;SDS011;3805;49.006;8.514;2023-06-22T08:25:52;7.77;;;6.97;;
7527;SDS011;3805;49.006;8.514;2023-06-22T08:28:41;8.83;;;7.10;;
7527;SDS011;3805;49.006;8.514;2023-06-22T08:31:29;9.20;;;6.20;;
7527;SDS011;3805;49.006;8.514;2023-06-22T08:34:20;8.20;;;6.83;;
7527;SDS011;3805;49.006;8.514;2023-06-22T08:37:09;11.00;;;7.30;;
7527;SDS011;3805;49.006;8.514;2023-06-22T08:39:59;8.17;;;7.37;;
7527;SDS011;3805;49.006;8.514;2023-06-22T08:42:48;8.70;;;6.90;;
7527;SDS011;3805;49.006;8.514;2023-06-22T08:45:37;8.90;;;6.43;;
7527;SDS011;3805;49.006;8.514;2023-06-22T08:48:27;8.30;;;6.97;;
7527;SDS011;3805;49.006;8.514;2023-06-22T08:51:16;8.17;;;5.83;;
7527;SDS011;3805;49.006;8.514;2023-06-22T08:54:05;7.03;;;6.27;;
7527;SDS011;3805;49.006;8.514;2023-06-22T08:56:53;7.53;;;6.17;;
7527;SDS011;3805;49.006;8.514;2023-06-22T08:59:42;7.30;;;6.70;;
7527;SDS011;3805;49.006;8.514;2023-06-22T09:02:31;9.37;;;7.10;;
7527;SDS011;3805;49.006;8.514;2023-06-22T09:05:20;8.30;;;6.37;;
7527;SDS011;3805;49.006;8.514;2023-06-22T09:08:12;8.57;;;7.30;;
7527;SDS011;3805;49.006;8.514;2023-06-22T09:11:01;7.67;;;6.90;;
7527;SDS011;3805;49.006;8.514;2023-06-22T09:13:49;7.93;;;7.07;;
7527;SDS011;3805;49.006;8.514;2023-06-22T09:16:39;6.90;;;6.20;;
7527;SDS011;3805;49.006;8.514;2023-06-22T09:19:27;7.20;;;6.50;;
7527;SDS011;3805;49.006;8.514;2023-06-22T09:22:16;7.23;;;6.40;;
7527;SDS011;3805;49.006;8.514;2023-06-22T09:25:07;8.83;;;6.10;;
7527;SDS011;3805;49.006;8.514;2023-06-22T09:27:56;8.63;;;6.50;;
7527;SDS011;3805;49.006;8.514;2023-06-22T09:30:45;7.43;;;6.70;;
7527;SDS011;3805;49.006;8.514;2023-06-22T09:33:34;8.30;;;6.97;;
7527;SDS011;3805;49.006;8.514;2023-06-22T09:36:23;6.63;;;6.00;;
7527;SDS011;3805;49.006;8.514;2023-06-22T09:39:11;7.50;;;6.70;;
7527;SDS011;3805;49.006;8.514;2023-06-22T09:42:01;7.47;;;6.73;;
7527;SDS011;3805;49.006;8.514;2023-06-22T09:44:52;7.50;;;6.80;;
7527;SDS011;3805;49.006;8.514;2023-06-22T09:47:41;7.37;;;6.63;;
7527;SDS011;3805;49.006;8.514;2023-06-22T09:50:30;8.17;;;7.37;;
7527;SDS011;3805;49.006;8.514;2023-06-22T09:53:18;7.50;;;6.07;;
7527;SDS011;3805;49.006;8.514;2023-06-22T09:56:07;7.83;;;7.13;;
7527;SDS011;3805;49.006;8.514;2023-06-22T09:59:03;9.53;;;6.70;;
7527;SDS011;3805;49.006;8.514;2023-06-22T10:02:05;6.90;;;6.30;;
7527;SDS011;3805;49.006;8.514;2023-06-22T10:04:54;8.70;;;7.00;;
7527;SDS011;3805;49.006;8.514;2023-06-22T10:07:43;7.83;;;7.23;;
7527;SDS011;3805;49.006;8.514;2023-06-22T10:10:32;7.00;;;6.30;;
7527;SDS011;3805;49.006;8.514;2023-06-22T10:13:20;7.13;;;6.53;;
7527;SDS011;3805;49.006;8.514;2023-06-22T10:16:10;10.10;;;6.93;;
7527;SDS011;3805;49.006;8.514;2023-06-22T10:18:59;9.50;;;7.30;;
7527;SDS011;3805;49.006;8.514;2023-06-22T10:21:48;8.37;;;7.07;;
7527;SDS011;3805;49.006;8.514;2023-06-22T10:24:36;6.60;;;6.00;;
7527;SDS011;3805;49.006;8.514;2023-06-22T10:27:25;7.63;;;6.50;;
7527;SDS011;3805;49.006;8.514;2023-06-22T10:30:14;7.30;;;6.47;;
7527;SDS011;3805;49.006;8.514;2023-06-22T10:33:04;7.90;;;7.20;;
7527;SDS011;3805;49.006;8.514;2023-06-22T10:35:53;8.67;;;6.60;;
7527;SDS011;3805;49.006;8.514;2023-06-22T10:38:42;7.00;;;6.33;;
7527;SDS011;3805;49.006;8.514;2023-06-22T10:41:30;8.80;;;6.30;;
7527;SDS011;3805;49.006;8.514;2023-06-22T10:44:19;8.00;;;7.07;;
7527;SDS011;3805;49.006;8.514;2023-06-22T10:47:07;10.63;;;7.30;;
7527;SDS011;3805;49.006;8.514;2023-06-22T10:49:57;7.70;;;7.00;;
7527;SDS011;3805;49.006;8.514;2023-06-22T10:52:46;8.40;;;6.77;;
7527;SDS011;3805;49.006;8.514;2023-06-22T10:55:35;8.43;;;6.87;;
7527;SDS011;3805;49.006;8.514;2023-06-22T10:58:42;8.80;;;7.90;;
7527;SDS011;3805;49.006;8.514;2023-06-22T11:01:31;9.40;;;7.00;;
7527;SDS011;3805;49.006;8.514;2023-06-22T11:04:22;11.83;;;7.30;;
7527;SDS011;3805;49.006;8.514;2023-06-22T11:07:12;7.00;;;6.40;;
7527;SDS011;3805;49.006;8.514;2023-06-22T11:10:01;13.27;;;6.80;;
7527;SDS011;3805;49.006;8.514;2023-06-22T11:12:50;8.37;;;7.57;;
7527;SDS011;3805;49.006;8.514;2023-06-22T11:15:38;7.93;;;7.07;;
7527;SDS011;3805;49.006;8.514;2023-06-22T11:18:27;13.17;;;8.13;;
7527;SDS011;3805;49.006;8.514;2023-06-22T11:21:16;8.63;;;7.90;;
7527;SDS011;3805;49.006;8.514;2023-06-22T11:24:06;7.33;;;6.57;;
7527;SDS011;3805;49.006;8.514;2023-06-22T11:26:55;11.67;;;8.30;;
7527;SDS011;3805;49.006;8.514;2023-06-22T11:29:46;11.63;;;7.23;;
7527;SDS011;3805;49.006;8.514;2023-06-22T11:32:34;7.63;;;6.67;;
7527;SDS011;3805;49.006;8.514;2023-06-22T11:35:23;8.03;;;6.50;;
7527;SDS011;3805;49.006;8.514;2023-06-22T11:38:12;10.63;;;6.83;;
7527;SDS011;3805;49.006;8.514;2023-06-22T11:41:02;7.40;;;6.70;;
7527;SDS011;3805;49.006;8.514;2023-06-22T11:43:50;11.10;;;7.23;;
7527;SDS011;3805;49.006;8.514;2023-06-22T11:46:39;10.90;;;7.37;;
7527;SDS011;3805;49.006;8.514;2023-06-22T11:49:27;7.87;;;6.40;;
7527;SDS011;3805;49.006;8.514;2023-06-22T11:52:16;8.30;;;7.50;;
7527;SDS011;3805;49.006;8.514;2023-06-22T11:55:07;7.33;;;6.63;;
7527;SDS011;3805;49.006;8.514;2023-06-22T11:58:04;9.10;;;8.20;;
7527;SDS011;3805;49.006;8.514;2023-06-22T12:00:53;9.27;;;6.30;;
7527;SDS011;3805;49.006;8.514;2023-06-22T12:03:43;8.23;;;7.43;;
7527;SDS011;3805;49.006;8.514;2023-06-22T12:06:31;11.70;;;7.10;;
7527;SDS011;3805;49.006;8.514;2023-06-22T12:09:20;9.40;;;7.20;;
7527;SDS011;3805;49.006;8.514;2023-06-22T12:12:09;8.93;;;7.10;;
7527;SDS011;3805;49.006;8.514;2023-06-22T12:14:59;9.00;;;7.13;;
7527;SDS011;3805;49.006;8.514;2023-06-22T12:17:50;7.37;;;6.53;;
7527;SDS011;3805;49.006;8.514;2023-06-22T12:20:39;8.67;;;7.70;;
7527;SDS011;3805;49.006;8.514;2023-06-22T12:23:27;8.33;;;7.20;;
7527;SDS011;3805;49.006;8.514;2023-06-22T12:26:16;11.30;;;7.13;;
7527;SDS011;3805;49.006;8.514;2023-06-22T12:29:04;8.00;;;6.90;;
7527;SDS011;3805;49.006;8.514;2023-06-22T12:31:55;7.63;;;6.60;;
7527;SDS011;3805;49.006;8.514;2023-06-22T12:34:44;9.90;;;7.40;;
7527;SDS011;3805;49.006;8.514;2023-06-22T12:37:33;7.47;;;6.67;;
7527;SDS011;3805;49.006;8.514;2023-06-22T12:40:21;13.70;;;7.20;;
7527;SDS011;3805;49.006;8.514;2023-06-22T12:43:10;16.27;;;7.70;;
7527;SDS011;3805;49.006;8.514;2023-06-22T12:45:59;7.63;;;6.67;;
7527;SDS011;3805;49.006;8.514;2023-06-22T12:48:49;7.73;;;7.03;;
7527;SDS011;3805;49.006;8.514;2023-06-22T12:51:39;9.73;;;6.73;;
7527;SDS011;3805;49.006;8.514;2023-06-22T12:54:29;7.80;;;7.00;;
7527;SDS011;3805;49.006;8.514;2023-06-22T12:57:29;8.20;;;7.17;;
7527;SDS011;3805;49.006;8.514;2023-06-22T13:00:17;8.60;;;7.60;;
7527;SDS011;3805;49.006;8.514;2023-06-22T13:03:06;12.60;;;11.20;;
7527;SDS011;3805;49.006;8.514;2023-06-22T13:05:57;9.40;;;7.73;;
7527;SDS011;3805;49.006;8.514;2023-06-22T13:08:45;7.97;;;7.27;;
7527;SDS011;3805;49.006;8.514;2023-06-22T13:11:37;11.63;;;7.20;;
7527;SDS011;3805;49.006;8.514;2023-06-22T13:14:26;10.33;;;7.57;;
7527;SDS011;3805;49.006;8.514;2023-06-22T13:17:14;8.00;;;7.00;;
7527;SDS011;3805;49.006;8.514;2023-06-22T13:20:03;7.70;;;7.00;;
7527;SDS011;3805;49.006;8.514;2023-06-22T13:22:54;9.03;;;7.83;;
7527;SDS011;3805;49.006;8.514;2023-06-22T13:25:44;12.83;;;8.97;;
7527;SDS011;3805;49.006;8.514;2023-06-22T13:28:32;11.63;;;7.30;;
7527;SDS011;3805;49.006;8.514;2023-06-22T13:31:21;10.17;;;8.40;;
7527;SDS011;3805;49.006;8.514;2023-06-22T13:34:09;8.10;;;7.40;;
7527;SDS011;3805;49.006;8.514;2023-06-22T13:36:58;9.40;;;8.40;;
7527;SDS011;3805;49.006;8.514;2023-06-22T13:39:48;10.67;;;8.13;;
7527;SDS011;3805;49.006;8.514;2023-06-22T13:42:37;10.87;;;7.30;;
7527;SDS011;3805;49.006;8.514;2023-06-22T13:45:26;8.10;;;7.40;;
7527;SDS011;3805;49.006;8.514;2023-06-22T13:48:15;13.80;;;8.03;;
7527;SDS011;3805;49.006;8.514;2023-06-22T13:51:03;8.53;;;7.73;;
7527;SDS011;3805;49.006;8.514;2023-06-22T13:53:52;12.50;;;7.63;;
7527;SDS011;3805;49.006;8.514;2023-06-22T13:56:42;8.60;;;7.80;;
7527;SDS011;3805;49.006;8.514;2023-06-22T13:59:31;9.30;;;7.23;;
7527;SDS011;3805;49.006;8.514;2023-06-22T14:02:20;8.47;;;7.67;;
7527;SDS011;3805;49.006;8.514;2023-06-22T14:05:08;8.57;;;7.77;;
7527;SDS011;3805;49.006;8.514;2023-06-22T14:07:58;9.30;;;7.33;;
7527;SDS011;3805;49.006;8.514;2023-06-22T14:10:46;8.60;;;7.70;;
7527;SDS011;3805;49.006;8.514;2023-06-22T14:13:36;8.40;;;7.47;;
7527;SDS011;3805;49.006;8.514;2023-06-22T14:16:25;9.40;;;7.87;;
7527;SDS011;3805;49.006;8.514;2023-06-22T14:19:13;7.83;;;7.13;;
7527;SDS011;3805;49.006;8.514;2023-06-22T14:22:02;9.10;;;7.30;;
7527;SDS011;3805;49.006;8.514;2023-06-22T14:24:51;10.30;;;7.60;;
7527;SDS011;3805;49.006;8.514;2023-06-22T14:27:39;9.33;;;8.43;;
7527;SDS011;3805;49.006;8.514;2023-06-22T14:30:29;9.73;;;8.40;;
7527;SDS011;3805;49.006;8.514;2023-06-22T14:33:18;12.93;;;7.30;;
7527;SDS011;3805;49.006;8.514;2023-06-22T14:36:06;8.83;;;8.00;;
7527;SDS011;3805;49.006;8.514;2023-06-22T14:38:58;7.63;;;6.50;;
7527;SDS011;3805;49.006;8.514;2023-06-22T14:41:47;10.83;;;8.20;;
7527;SDS011;3805;49.006;8.514;2023-06-22T14:44:35;10.63;;;8.53;;
7527;SDS011;3805;49.006;8.514;2023-06-22T14:47:25;10.43;;;7.70;;
7527;SDS011;3805;49.006;8.514;2023-06-22T14:50:14;10.77;;;7.60;;
7527;SDS011;3805;49.006;8.514;2023-06-22T14:53:03;9.80;;;8.00;;
7527;SDS011;3805;49.006;8.514;2023-06-22T14:55:51;8.23;;;6.97;;
7527;SDS011;3805;49.006;8.514;2023-06-22T14:58:41;12.97;;;7.33;;
7527;SDS011;3805;49.006;8.514;2023-06-22T15:01:32;11.17;;;7.40;;
7527;SDS011;3805;49.006;8.514;2023-06-22T15:04:23;9.73;;;7.63;;
7527;SDS011;3805;49.006;8.514;2023-06-22T15:07:11;8.37;;;7.47;;
7527;SDS011;3805;49.006;8.514;2023-06-22T15:10:00;10.47;;;8.17;;
7527;SDS011;3805;49.006;8.514;2023-06-22T15:12:49;11.90;;;7.77;;
7527;SDS011;3805;49.006;8.514;2023-06-22T15:15:38;11.07;;;7.40;;
7527;SDS011;3805;49.006;8.514;2023-06-22T15:18:26;8.40;;;7.50;;
7527;SDS011;3805;49.006;8.514;2023-06-22T15:21:16;9.83;;;7.10;;
7527;SDS011;3805;49.006;8.514;2023-06-22T15:24:05;12.33;;;8.53;;
7527;SDS011;3805;49.006;8.514;2023-06-22T15:26:54;9.80;;;7.20;;
7527;SDS011;3805;49.006;8.514;2023-06-22T15:29:43;13.03;;;8.20;;
7527;SDS011;3805;49.006;8.514;2023-06-22T15:32:31;10.73;;;8.13;;
7527;SDS011;3805;49.006;8.514;2023-06-22T15:35:20;9.20;;;7.37;;
7527;SDS011;3805;49.006;8.514;2023-06-22T15:38:10;9.13;;;8.20;;
7527;SDS011;3805;49.006;8.514;2023-06-22T15:40:58;8.03;;;7.23;;
7527;SDS011;3805;49.006;8.514;2023-06-22T15:43:47;8.10;;;7.00;;
7527;SDS011;3805;49.006;8.514;2023-06-22T15:46:36;11.47;;;7.53;;
7527;SDS011;3805;49.006;8.514;2023-06-22T15:49:25;9.80;;;7.60;;
7527;SDS011;3805;49.006;8.514;2023-06-22T15:52:14;8.67;;;7.97;;
7527;SDS011;3805;49.006;8.514;2023-06-22T15:55:07;11.00;;;8.23;;
7527;SDS011;3805;49.006;8.514;2023-06-22T15:57:57;12.90;;;7.00;;
7527;SDS011;3805;49.006;8.514;2023-06-22T16:00:45;8.70;;;7.80;;
7527;SDS011;3805;49.006;8.514;2023-06-22T16:03:38;14.53;;;8.97;;
7527;SDS011;3805;49.006;8.514;2023-06-22T16:06:28;12.37;;;8.57;;
7527;SDS011;3805;49.006;8.514;2023-06-22T16:09:16;17.47;;;7.83;;
7527;SDS011;3805;49.006;8.514;2023-06-22T16:12:07;10.90;;;7.70;;
7527;SDS011;3805;49.006;8.514;2023-06-22T16:14:56;8.63;;;7.73;;
7527;SDS011;3805;49.006;8.514;2023-06-22T16:17:45;8.30;;;7.50;;
7527;SDS011;3805;49.006;8.514;2023-06-22T16:20:33;9.23;;;6.97;;
7527;SDS011;3805;49.006;8.514;2023-06-22T16:23:22;13.03;;;7.70;;
7527;SDS011;3805;49.006;8.514;2023-06-22T16:26:11;9.50;;;7.63;;
7527;SDS011;3805;49.006;8.514;2023-06-22T16:29:01;10.37;;;7.70;;
7527;SDS011;3805;49.006;8.514;2023-06-22T16:31:49;11.50;;;7.47;;
7527;SDS011;3805;49.006;8.514;2023-06-22T16:34:38;13.80;;;7.83;;
7527;SDS011;3805;49.006;8.514;2023-06-22T16:37:26;9.40;;;7.70;;
7527;SDS011;3805;49.006;8.514;2023-06-22T16:40:15;9.37;;;7.70;;
7527;SDS011;3805;49.006;8.514;2023-06-22T16:43:07;9.67;;;7.37;;
7527;SDS011;3805;49.006;8.514;2023-06-22T16:45:57;9.67;;;6.90;;
7527;SDS011;3805;49.006;8.514;2023-06-22T16:48:49;15.17;;;7.90;;
7527;SDS011;3805;49.006;8.514;2023-06-22T16:51:39;9.63;;;7.10;;
7527;SDS011;3805;49.006;8.514;2023-06-22T16:54:28;9.77;;;7.13;;
7527;SDS011;3805;49.006;8.514;2023-06-22T16:57:17;8.73;;;6.93;;
7527;SDS011;3805;49.006;8.514;2023-06-22T17:00:06;13.93;;;7.73;;
7527;SDS011;3805;49.006;8.514;2023-06-22T17:02:59;13.83;;;8.50;;
7527;SDS011;3805;49.006;8.514;2023-06-22T17:05:52;10.60;;;7.20;;
7527;SDS011;3805;49.006;8.514;2023-06-22T17:08:48;9.50;;;6.90;;
7527;SDS011;3805;49.006;8.514;2023-06-22T17:11:37;9.17;;;6.93;;
7527;SDS011;3805;49.006;8.514;2023-06-22T17:14:25;12.60;;;6.90;;
7527;SDS011;3805;49.006;8.514;2023-06-22T17:17:15;10.43;;;6.27;;
7527;SDS011;3805;49.006;8.514;2023-06-22T17:20:07;11.50;;;6.20;;
7527;SDS011;3805;49.006;8.514;2023-06-22T17:22:57;10.57;;;6.60;;
7527;SDS011;3805;49.006;8.514;2023-06-22T17:25:46;8.10;;;5.90;;